sensor_id;sensor_type;location;lat;lon;timestamp;P1;durP1;ratioP1;P2;durP2;ratioP2
81221;SDS011;70691;52.492;13.420;2023-11-18T00:01:44;14.10;;;5.55;;
81221;SDS011;70691;52.492;13.420;2023-11-18T00:04:10;11.50;;;5.53;;
81221;SDS011;70691;52.492;13.420;2023-11-18T00:06:41;8.10;;;4.72;;
81221;SDS011;70691;52.492;13.420;2023-11-18T00:09:09;9.38;;;4.93;;
81221;SDS011;70691;52.492;13.420;2023-11-18T00:11:41;11.65;;;5.32;;
81221;SDS011;70691;52.492;13.420;2023-11-18T00:14:07;9.68;;;4.80;;
81221;SDS011;70691;52.492;13.420;2023-11-18T00:16:35;8.80;;;5.53;;
81221;SDS011;70691;52.492;13.420;2023-11-18T00:19:01;7.40;;;4.45;;
81221;SDS011;70691;52.492;13.420;2023-11-18T00:21:30;8.45;;;5.40;;
81221;SDS011;70691;52.492;13.420;2023-11-18T00:23:55;10.35;;;5.03;;
81221;SDS011;70691;52.492;13.420;2023-11-18T00:26:21;7.53;;;4.55;;
81221;SDS011;70691;52.492;13.420;2023-11-18T00:28:47;7.05;;;4.82;;
81221;SDS011;70691;52.492;13.420;2023-11-18T00:31:15;9.65;;;4.78;;
81221;SDS011;70691;52.492;13.420;2023-11-18T00:33:41;8.55;;;5.47;;
81221;SDS011;70691;52.492;13.420;2023-11-18T00:36:07;9.02;;;4.28;;
81221;SDS011;70691;52.492;13.420;2023-11-18T00:38:32;8.05;;;4.10;;
81221;SDS011;70691;52.492;13.420;2023-11-18T00:40:58;7.60;;;4.43;;
81221;SDS011;70691;52.492;13.420;2023-11-18T00:43:25;8.30;;;4.78;;
81221;SDS011;70691;52.492;13.420;2023-11-18T00:45:50;10.75;;;5.13;;
81221;SDS011;70691;52.492;13.420;2023-11-18T00:48:16;8.35;;;4.68;;
81221;SDS011;70691;52.492;13.420;2023-11-18T00:50:42;7.03;;;4.43;;
81221;SDS011;70691;52.492;13.420;2023-11-18T00:53:08;9.68;;;5.32;;
81221;SDS011;70691;52.492;13.420;2023-11-18T00:55:35;7.88;;;4.70;;
81221;SDS011;70691;52.492;13.420;2023-11-18T00:58:00;6.43;;;3.92;;
81221;SDS011;70691;52.492;13.420;2023-11-18T01:00:26;8.63;;;5.15;;
81221;SDS011;70691;52.492;13.420;2023-11-18T01:02:52;7.65;;;4.22;;
81221;SDS011;70691;52.492;13.420;2023-11-18T01:05:19;8.35;;;5.07;;
81221;SDS011;70691;52.492;13.420;2023-11-18T01:07:45;7.03;;;4.45;;
81221;SDS011;70691;52.492;13.420;2023-11-18T01:10:11;7.25;;;4.43;;
81221;SDS011;70691;52.492;13.420;2023-11-18T01:12:38;11.85;;;4.20;;
81221;SDS011;70691;52.492;13.420;2023-11-18T01:15:05;8.20;;;4.78;;
81221;SDS011;70691;52.492;13.420;2023-11-18T01:17:32;10.63;;;4.70;;
81221;SDS011;70691;52.492;13.420;2023-11-18T01:19:58;8.50;;;4.75;;
81221;SDS011;70691;52.492;13.420;2023-11-18T01:22:24;9.27;;;4.78;;
81221;SDS011;70691;52.492;13.420;2023-11-18T01:25:13;10.00;;;5.47;;
81221;SDS011;70691;52.492;13.420;2023-11-18T01:27:44;7.78;;;4.50;;
81221;SDS011;70691;52.492;13.420;2023-11-18T01:30:12;7.75;;;4.57;;
81221;SDS011;70691;52.492;13.420;2023-11-18T01:32:38;7.65;;;4.65;;
81221;SDS011;70691;52.492;13.420;2023-11-18T01:35:07;8.77;;;4.63;;
81221;SDS011;70691;52.492;13.420;2023-11-18T01:40:55;10.35;;;4.88;;
81221;SDS011;70691;52.492;13.420;2023-11-18T01:43:21;7.55;;;4.47;;
81221;SDS011;70691;52.492;13.420;2023-11-18T01:45:47;7.35;;;3.90;;
81221;SDS011;70691;52.492;13.420;2023-11-18T01:48:13;6.88;;;4.40;;
81221;SDS011;70691;52.492;13.420;2023-11-18T01:50:40;8.80;;;4.25;;
81221;SDS011;70691;52.492;13.420;2023-11-18T01:53:07;8.75;;;4.30;;
81221;SDS011;70691;52.492;13.420;2023-11-18T01:55:35;8.55;;;4.63;;
81221;SDS011;70691;52.492;13.420;2023-11-18T01:58:01;9.02;;;4.80;;
81221;SDS011;70691;52.492;13.420;2023-11-18T02:00:34;7.15;;;4.35;;
81221;SDS011;70691;52.492;13.420;2023-11-18T02:03:03;7.20;;;5.07;;
81221;SDS011;70691;52.492;13.420;2023-11-18T02:05:30;6.32;;;4.13;;
81221;SDS011;70691;52.492;13.420;2023-11-18T02:07:57;5.90;;;3.75;;
81221;SDS011;70691;52.492;13.420;2023-11-18T02:10:25;8.35;;;3.92;;
81221;SDS011;70691;52.492;13.420;2023-11-18T02:13:02;7.07;;;4.38;;
81221;SDS011;70691;52.492;13.420;2023-11-18T02:15:33;7.00;;;4.30;;
81221;SDS011;70691;52.492;13.420;2023-11-18T02:18:01;7.47;;;4.70;;
81221;SDS011;70691;52.492;13.420;2023-11-18T02:20:28;8.15;;;4.13;;
81221;SDS011;70691;52.492;13.420;2023-11-18T02:22:55;5.88;;;3.75;;
81221;SDS011;70691;52.492;13.420;2023-11-18T02:25:21;6.82;;;3.92;;
81221;SDS011;70691;52.492;13.420;2023-11-18T02:27:52;9.27;;;4.57;;
81221;SDS011;70691;52.492;13.420;2023-11-18T02:30:18;7.35;;;4.28;;
81221;SDS011;70691;52.492;13.420;2023-11-18T02:33:07;9.02;;;4.28;;
81221;SDS011;70691;52.492;13.420;2023-11-18T02:35:53;7.35;;;4.30;;
81221;SDS011;70691;52.492;13.420;2023-11-18T02:38:22;7.90;;;4.32;;
81221;SDS011;70691;52.492;13.420;2023-11-18T02:40:58;7.03;;;4.22;;
81221;SDS011;70691;52.492;13.420;2023-11-18T02:43:26;7.22;;;4.18;;
81221;SDS011;70691;52.492;13.420;2023-11-18T02:45:53;9.93;;;4.68;;
81221;SDS011;70691;52.492;13.420;2023-11-18T02:48:21;8.70;;;5.03;;
81221;SDS011;70691;52.492;13.420;2023-11-18T02:50:48;10.95;;;5.85;;
81221;SDS011;70691;52.492;13.420;2023-11-18T02:53:14;9.40;;;5.53;;
81221;SDS011;70691;52.492;13.420;2023-11-18T02:55:40;9.55;;;4.50;;
81221;SDS011;70691;52.492;13.420;2023-11-18T02:58:06;10.55;;;4.40;;
81221;SDS011;70691;52.492;13.420;2023-11-18T03:00:32;8.13;;;4.70;;
81221;SDS011;70691;52.492;13.420;2023-11-18T03:02:58;9.57;;;4.60;;
81221;SDS011;70691;52.492;13.420;2023-11-18T03:05:24;10.65;;;4.78;;
81221;SDS011;70691;52.492;13.420;2023-11-18T03:07:51;8.43;;;4.57;;
81221;SDS011;70691;52.492;13.420;2023-11-18T03:10:20;8.73;;;4.78;;
81221;SDS011;70691;52.492;13.420;2023-11-18T03:12:52;10.50;;;4.78;;
81221;SDS011;70691;52.492;13.420;2023-11-18T03:15:19;13.02;;;5.28;;
81221;SDS011;70691;52.492;13.420;2023-11-18T03:17:46;11.15;;;4.97;;
81221;SDS011;70691;52.492;13.420;2023-11-18T03:20:16;8.15;;;4.88;;
81221;SDS011;70691;52.492;13.420;2023-11-18T03:22:43;7.50;;;4.20;;
81221;SDS011;70691;52.492;13.420;2023-11-18T03:25:12;8.20;;;4.70;;
81221;SDS011;70691;52.492;13.420;2023-11-18T03:27:38;8.63;;;5.22;;
81221;SDS011;70691;52.492;13.420;2023-11-18T03:30:05;8.93;;;5.13;;
81221;SDS011;70691;52.492;13.420;2023-11-18T03:32:32;11.02;;;5.82;;
81221;SDS011;70691;52.492;13.420;2023-11-18T03:34:58;8.45;;;5.28;;
81221;SDS011;70691;52.492;13.420;2023-11-18T03:37:26;11.07;;;5.43;;
81221;SDS011;70691;52.492;13.420;2023-11-18T03:39:52;7.57;;;4.82;;
81221;SDS011;70691;52.492;13.420;2023-11-18T03:42:18;11.57;;;5.47;;
81221;SDS011;70691;52.492;13.420;2023-11-18T03:44:43;7.70;;;4.97;;
81221;SDS011;70691;52.492;13.420;2023-11-18T03:47:12;7.60;;;3.90;;
81221;SDS011;70691;52.492;13.420;2023-11-18T03:49:39;8.38;;;4.40;;
81221;SDS011;70691;52.492;13.420;2023-11-18T03:52:05;8.23;;;3.63;;
81221;SDS011;70691;52.492;13.420;2023-11-18T03:54:31;8.25;;;4.70;;
81221;SDS011;70691;52.492;13.420;2023-11-18T03:56:57;8.02;;;4.95;;
81221;SDS011;70691;52.492;13.420;2023-11-18T04:02:44;10.30;;;4.80;;
81221;SDS011;70691;52.492;13.420;2023-11-18T04:05:11;10.23;;;4.22;;
81221;SDS011;70691;52.492;13.420;2023-11-18T04:07:37;11.98;;;4.63;;
81221;SDS011;70691;52.492;13.420;2023-11-18T04:10:03;10.25;;;4.43;;
81221;SDS011;70691;52.492;13.420;2023-11-18T04:12:32;9.75;;;4.40;;
81221;SDS011;70691;52.492;13.420;2023-11-18T04:14:58;9.02;;;3.40;;
81221;SDS011;70691;52.492;13.420;2023-11-18T04:17:23;9.52;;;4.40;;
81221;SDS011;70691;52.492;13.420;2023-11-18T04:19:52;7.88;;;4.55;;
81221;SDS011;70691;52.492;13.420;2023-11-18T04:22:20;6.40;;;4.00;;
81221;SDS011;70691;52.492;13.420;2023-11-18T04:24:47;9.48;;;4.40;;
81221;SDS011;70691;52.492;13.420;2023-11-18T04:27:12;8.45;;;4.20;;
81221;SDS011;70691;52.492;13.420;2023-11-18T04:29:38;9.20;;;4.47;;
81221;SDS011;70691;52.492;13.420;2023-11-18T04:32:05;8.93;;;3.85;;
81221;SDS011;70691;52.492;13.420;2023-11-18T04:34:35;7.45;;;4.05;;
81221;SDS011;70691;52.492;13.420;2023-11-18T04:37:01;8.05;;;4.18;;
81221;SDS011;70691;52.492;13.420;2023-11-18T04:39:28;9.73;;;5.20;;
81221;SDS011;70691;52.492;13.420;2023-11-18T04:41:55;8.27;;;4.43;;
81221;SDS011;70691;52.492;13.420;2023-11-18T04:44:21;9.48;;;4.63;;
81221;SDS011;70691;52.492;13.420;2023-11-18T04:46:47;8.32;;;4.68;;
81221;SDS011;70691;52.492;13.420;2023-11-18T04:49:13;9.50;;;4.47;;
81221;SDS011;70691;52.492;13.420;2023-11-18T04:51:38;8.15;;;4.65;;
81221;SDS011;70691;52.492;13.420;2023-11-18T04:54:04;10.68;;;5.47;;
81221;SDS011;70691;52.492;13.420;2023-11-18T04:56:33;9.88;;;5.28;;
81221;SDS011;70691;52.492;13.420;2023-11-18T04:59:00;9.30;;;5.68;;
81221;SDS011;70691;52.492;13.420;2023-11-18T05:01:27;7.45;;;4.97;;
81221;SDS011;70691;52.492;13.420;2023-11-18T05:03:53;11.77;;;5.63;;
81221;SDS011;70691;52.492;13.420;2023-11-18T05:06:19;10.23;;;5.28;;
81221;SDS011;70691;52.492;13.420;2023-11-18T05:08:45;11.63;;;4.95;;
81221;SDS011;70691;52.492;13.420;2023-11-18T05:11:11;11.45;;;5.30;;
81221;SDS011;70691;52.492;13.420;2023-11-18T05:13:38;12.38;;;5.57;;
81221;SDS011;70691;52.492;13.420;2023-11-18T05:16:05;10.18;;;5.47;;
81221;SDS011;70691;52.492;13.420;2023-11-18T05:18:31;10.85;;;5.93;;
81221;SDS011;70691;52.492;13.420;2023-11-18T05:21:00;8.98;;;4.40;;
81221;SDS011;70691;52.492;13.420;2023-11-18T05:23:26;9.82;;;5.28;;
81221;SDS011;70691;52.492;13.420;2023-11-18T05:25:54;12.02;;;5.88;;
81221;SDS011;70691;52.492;13.420;2023-11-18T05:28:21;8.70;;;5.30;;
81221;SDS011;70691;52.492;13.420;2023-11-18T05:30:47;10.40;;;5.30;;
81221;SDS011;70691;52.492;13.420;2023-11-18T05:33:13;12.15;;;5.35;;
81221;SDS011;70691;52.492;13.420;2023-11-18T05:35:42;13.10;;;6.20;;
81221;SDS011;70691;52.492;13.420;2023-11-18T05:38:14;9.45;;;5.00;;
81221;SDS011;70691;52.492;13.420;2023-11-18T05:40:43;9.05;;;5.18;;
81221;SDS011;70691;52.492;13.420;2023-11-18T05:43:24;10.23;;;5.68;;
81221;SDS011;70691;52.492;13.420;2023-11-18T05:45:54;10.05;;;5.50;;
81221;SDS011;70691;52.492;13.420;2023-11-18T05:48:41;10.13;;;5.45;;
81221;SDS011;70691;52.492;13.420;2023-11-18T05:51:09;10.77;;;5.47;;
81221;SDS011;70691;52.492;13.420;2023-11-18T05:53:39;15.88;;;6.47;;
81221;SDS011;70691;52.492;13.420;2023-11-18T05:56:06;10.95;;;5.72;;
81221;SDS011;70691;52.492;13.420;2023-11-18T05:58:32;10.35;;;5.50;;
81221;SDS011;70691;52.492;13.420;2023-11-18T06:00:59;10.60;;;5.40;;
81221;SDS011;70691;52.492;13.420;2023-11-18T06:03:25;13.88;;;5.80;;
81221;SDS011;70691;52.492;13.420;2023-11-18T06:05:51;11.13;;;5.80;;
81221;SDS011;70691;52.492;13.420;2023-11-18T06:08:17;11.45;;;6.25;;
81221;SDS011;70691;52.492;13.420;2023-11-18T06:10:42;12.00;;;5.47;;
81221;SDS011;70691;52.492;13.420;2023-11-18T06:13:10;17.25;;;6.28;;
81221;SDS011;70691;52.492;13.420;2023-11-18T06:15:38;11.10;;;5.68;;
81221;SDS011;70691;52.492;13.420;2023-11-18T06:18:04;10.50;;;5.53;;
81221;SDS011;70691;52.492;13.420;2023-11-18T06:20:30;10.25;;;5.85;;
81221;SDS011;70691;52.492;13.420;2023-11-18T06:22:58;10.98;;;5.75;;
81221;SDS011;70691;52.492;13.420;2023-11-18T06:25:23;10.30;;;5.22;;
81221;SDS011;70691;52.492;13.420;2023-11-18T06:27:50;10.27;;;5.70;;
81221;SDS011;70691;52.492;13.420;2023-11-18T06:30:18;9.93;;;5.90;;
81221;SDS011;70691;52.492;13.420;2023-11-18T06:32:44;10.57;;;5.95;;
81221;SDS011;70691;52.492;13.420;2023-11-18T06:35:12;11.95;;;6.03;;
81221;SDS011;70691;52.492;13.420;2023-11-18T06:37:40;13.32;;;5.55;;
81221;SDS011;70691;52.492;13.420;2023-11-18T06:40:06;9.13;;;4.85;;
81221;SDS011;70691;52.492;13.420;2023-11-18T06:42:41;11.07;;;5.18;;
81221;SDS011;70691;52.492;13.420;2023-11-18T06:45:07;8.55;;;5.40;;
81221;SDS011;70691;52.492;13.420;2023-11-18T06:47:34;11.30;;;5.32;;
81221;SDS011;70691;52.492;13.420;2023-11-18T06:50:01;12.57;;;6.18;;
81221;SDS011;70691;52.492;13.420;2023-11-18T06:52:27;8.93;;;4.88;;
81221;SDS011;70691;52.492;13.420;2023-11-18T06:54:53;15.82;;;5.85;;
81221;SDS011;70691;52.492;13.420;2023-11-18T06:57:20;11.82;;;5.93;;
81221;SDS011;70691;52.492;13.420;2023-11-18T06:59:46;8.60;;;5.60;;
81221;SDS011;70691;52.492;13.420;2023-11-18T07:02:13;10.65;;;5.60;;
81221;SDS011;70691;52.492;13.420;2023-11-18T07:04:40;12.45;;;5.55;;
81221;SDS011;70691;52.492;13.420;2023-11-18T07:07:06;9.73;;;5.47;;
81221;SDS011;70691;52.492;13.420;2023-11-18T07:09:33;16.13;;;6.28;;
81221;SDS011;70691;52.492;13.420;2023-11-18T07:12:01;10.45;;;4.97;;
81221;SDS011;70691;52.492;13.420;2023-11-18T07:14:28;10.48;;;5.90;;
81221;SDS011;70691;52.492;13.420;2023-11-18T07:16:54;9.75;;;5.45;;
81221;SDS011;70691;52.492;13.420;2023-11-18T07:19:20;13.30;;;5.43;;
81221;SDS011;70691;52.492;13.420;2023-11-18T07:21:49;10.55;;;5.30;;
81221;SDS011;70691;52.492;13.420;2023-11-18T07:24:15;11.63;;;6.57;;
81221;SDS011;70691;52.492;13.420;2023-11-18T07:26:42;11.68;;;5.05;;
81221;SDS011;70691;52.492;13.420;2023-11-18T07:29:09;9.68;;;5.40;;
81221;SDS011;70691;52.492;13.420;2023-11-18T07:31:34;9.30;;;5.72;;
81221;SDS011;70691;52.492;13.420;2023-11-18T07:34:01;10.98;;;6.50;;
81221;SDS011;70691;52.492;13.420;2023-11-18T07:36:30;14.48;;;6.68;;
81221;SDS011;70691;52.492;13.420;2023-11-18T07:38:57;10.95;;;5.90;;
81221;SDS011;70691;52.492;13.420;2023-11-18T07:41:26;10.27;;;6.00;;
81221;SDS011;70691;52.492;13.420;2023-11-18T07:43:55;11.48;;;6.10;;
81221;SDS011;70691;52.492;13.420;2023-11-18T07:46:24;13.20;;;6.13;;
81221;SDS011;70691;52.492;13.420;2023-11-18T07:48:50;14.27;;;7.30;;
81221;SDS011;70691;52.492;13.420;2023-11-18T07:51:20;12.52;;;6.53;;
81221;SDS011;70691;52.492;13.420;2023-11-18T07:53:49;11.63;;;6.90;;
81221;SDS011;70691;52.492;13.420;2023-11-18T07:56:15;14.50;;;6.63;;
81221;SDS011;70691;52.492;13.420;2023-11-18T07:58:42;11.30;;;6.25;;
81221;SDS011;70691;52.492;13.420;2023-11-18T08:01:11;15.77;;;6.65;;
81221;SDS011;70691;52.492;13.420;2023-11-18T08:03:37;14.55;;;6.78;;
81221;SDS011;70691;52.492;13.420;2023-11-18T08:06:03;12.13;;;6.47;;
81221;SDS011;70691;52.492;13.420;2023-11-18T08:08:32;16.70;;;7.32;;
81221;SDS011;70691;52.492;13.420;2023-11-18T08:11:04;10.18;;;5.80;;
81221;SDS011;70691;52.492;13.420;2023-11-18T08:13:30;10.25;;;5.53;;
81221;SDS011;70691;52.492;13.420;2023-11-18T08:15:56;18.88;;;6.13;;
81221;SDS011;70691;52.492;13.420;2023-11-18T08:18:25;10.23;;;5.72;;
81221;SDS011;70691;52.492;13.420;2023-11-18T08:20:52;9.48;;;5.28;;
81221;SDS011;70691;52.492;13.420;2023-11-18T08:23:18;11.48;;;5.15;;
81221;SDS011;70691;52.492;13.420;2023-11-18T08:25:44;11.65;;;5.63;;
81221;SDS011;70691;52.492;13.420;2023-11-18T08:28:11;11.75;;;6.63;;
81221;SDS011;70691;52.492;13.420;2023-11-18T08:30:38;13.60;;;6.85;;
81221;SDS011;70691;52.492;13.420;2023-11-18T08:33:04;11.77;;;6.32;;
81221;SDS011;70691;52.492;13.420;2023-11-18T08:35:34;10.43;;;5.25;;
81221;SDS011;70691;52.492;13.420;2023-11-18T08:38:02;9.80;;;5.20;;
81221;SDS011;70691;52.492;13.420;2023-11-18T08:40:29;9.93;;;5.47;;
81221;SDS011;70691;52.492;13.420;2023-11-18T08:42:55;9.02;;;5.55;;
81221;SDS011;70691;52.492;13.420;2023-11-18T08:47:52;10.15;;;4.93;;
81221;SDS011;70691;52.492;13.420;2023-11-18T08:50:18;10.85;;;5.50;;
81221;SDS011;70691;52.492;13.420;2023-11-18T08:52:47;11.32;;;5.45;;
81221;SDS011;70691;52.492;13.420;2023-11-18T08:55:13;11.88;;;5.90;;
81221;SDS011;70691;52.492;13.420;2023-11-18T08:57:49;8.43;;;4.13;;
81221;SDS011;70691;52.492;13.420;2023-11-18T09:00:38;9.73;;;4.57;;
81221;SDS011;70691;52.492;13.420;2023-11-18T09:03:11;9.75;;;4.65;;
81221;SDS011;70691;52.492;13.420;2023-11-18T09:05:45;7.97;;;4.68;;
81221;SDS011;70691;52.492;13.420;2023-11-18T09:11:03;17.38;;;5.15;;
81221;SDS011;70691;52.492;13.420;2023-11-18T09:13:31;12.55;;;5.32;;
81221;SDS011;70691;52.492;13.420;2023-11-18T09:16:00;9.52;;;4.78;;
81221;SDS011;70691;52.492;13.420;2023-11-18T09:18:28;12.65;;;6.05;;
81221;SDS011;70691;52.492;13.420;2023-11-18T09:21:00;11.27;;;5.80;;
81221;SDS011;70691;52.492;13.420;2023-11-18T09:23:30;7.50;;;4.57;;
81221;SDS011;70691;52.492;13.420;2023-11-18T09:25:56;9.52;;;4.40;;
81221;SDS011;70691;52.492;13.420;2023-11-18T09:28:23;8.10;;;4.85;;
81221;SDS011;70691;52.492;13.420;2023-11-18T09:30:50;9.95;;;5.15;;
81221;SDS011;70691;52.492;13.420;2023-11-18T09:33:21;9.70;;;4.60;;
81221;SDS011;70691;52.492;13.420;2023-11-18T09:35:53;9.00;;;4.88;;
81221;SDS011;70691;52.492;13.420;2023-11-18T09:38:31;12.35;;;6.00;;
81221;SDS011;70691;52.492;13.420;2023-11-18T09:40:58;11.85;;;5.60;;
81221;SDS011;70691;52.492;13.420;2023-11-18T09:43:32;13.18;;;5.45;;
81221;SDS011;70691;52.492;13.420;2023-11-18T09:46:05;8.77;;;4.35;;
81221;SDS011;70691;52.492;13.420;2023-11-18T09:48:44;7.57;;;4.20;;
81221;SDS011;70691;52.492;13.420;2023-11-18T09:51:28;6.53;;;4.60;;
81221;SDS011;70691;52.492;13.420;2023-11-18T09:54:01;7.90;;;5.10;;
81221;SDS011;70691;52.492;13.420;2023-11-18T09:59:22;8.13;;;4.82;;
81221;SDS011;70691;52.492;13.420;2023-11-18T10:01:56;7.00;;;4.40;;
81221;SDS011;70691;52.492;13.420;2023-11-18T10:04:26;10.15;;;5.25;;
81221;SDS011;70691;52.492;13.420;2023-11-18T10:06:53;7.88;;;4.80;;
81221;SDS011;70691;52.492;13.420;2023-11-18T10:09:19;8.30;;;4.40;;
81221;SDS011;70691;52.492;13.420;2023-11-18T10:11:53;6.95;;;4.03;;
81221;SDS011;70691;52.492;13.420;2023-11-18T10:14:30;13.82;;;5.10;;
81221;SDS011;70691;52.492;13.420;2023-11-18T10:16:56;7.82;;;4.68;;
81221;SDS011;70691;52.492;13.420;2023-11-18T10:19:22;8.63;;;5.05;;
81221;SDS011;70691;52.492;13.420;2023-11-18T10:21:51;8.95;;;4.20;;
81221;SDS011;70691;52.492;13.420;2023-11-18T10:24:16;9.10;;;5.03;;
81221;SDS011;70691;52.492;13.420;2023-11-18T10:26:54;7.07;;;4.03;;
81221;SDS011;70691;52.492;13.420;2023-11-18T10:29:26;7.53;;;4.43;;
81221;SDS011;70691;52.492;13.420;2023-11-18T10:32:02;9.10;;;3.40;;
81221;SDS011;70691;52.492;13.420;2023-11-18T10:34:32;11.27;;;4.00;;
81221;SDS011;70691;52.492;13.420;2023-11-18T10:37:00;11.27;;;4.75;;
81221;SDS011;70691;52.492;13.420;2023-11-18T10:39:31;9.88;;;4.82;;
81221;SDS011;70691;52.492;13.420;2023-11-18T10:42:00;12.40;;;7.45;;
81221;SDS011;70691;52.492;13.420;2023-11-18T10:44:27;13.30;;;7.97;;
81221;SDS011;70691;52.492;13.420;2023-11-18T10:46:54;14.20;;;7.45;;
81221;SDS011;70691;52.492;13.420;2023-11-18T10:49:27;15.70;;;7.25;;
81221;SDS011;70691;52.492;13.420;2023-11-18T10:51:54;12.20;;;6.50;;
81221;SDS011;70691;52.492;13.420;2023-11-18T10:54:21;12.23;;;7.18;;
81221;SDS011;70691;52.492;13.420;2023-11-18T10:56:50;15.43;;;7.53;;
81221;SDS011;70691;52.492;13.420;2023-11-18T10:59:21;12.50;;;6.45;;
81221;SDS011;70691;52.492;13.420;2023-11-18T11:01:50;13.50;;;6.35;;
81221;SDS011;70691;52.492;13.420;2023-11-18T11:04:17;12.83;;;7.03;;
81221;SDS011;70691;52.492;13.420;2023-11-18T11:06:46;11.75;;;6.53;;
81221;SDS011;70691;52.492;13.420;2023-11-18T11:09:21;13.25;;;6.28;;
81221;SDS011;70691;52.492;13.420;2023-11-18T11:12:00;12.90;;;6.05;;
81221;SDS011;70691;52.492;13.420;2023-11-18T11:14:42;12.60;;;6.47;;
81221;SDS011;70691;52.492;13.420;2023-11-18T11:17:14;14.57;;;5.55;;
81221;SDS011;70691;52.492;13.420;2023-11-18T11:19:52;9.50;;;5.10;;
81221;SDS011;70691;52.492;13.420;2023-11-18T11:22:29;11.30;;;5.50;;
81221;SDS011;70691;52.492;13.420;2023-11-18T11:25:05;15.00;;;6.65;;
81221;SDS011;70691;52.492;13.420;2023-11-18T11:30:40;8.60;;;4.80;;
81221;SDS011;70691;52.492;13.420;2023-11-18T11:36:07;11.05;;;6.47;;
81221;SDS011;70691;52.492;13.420;2023-11-18T11:38:37;8.35;;;5.55;;
81221;SDS011;70691;52.492;13.420;2023-11-18T11:41:03;12.73;;;5.57;;
81221;SDS011;70691;52.492;13.420;2023-11-18T11:43:30;10.93;;;5.75;;
81221;SDS011;70691;52.492;13.420;2023-11-18T11:46:00;8.83;;;5.60;;
81221;SDS011;70691;52.492;13.420;2023-11-18T11:48:36;10.52;;;5.78;;
81221;SDS011;70691;52.492;13.420;2023-11-18T11:53:47;12.80;;;6.05;;
81221;SDS011;70691;52.492;13.420;2023-11-18T11:56:18;10.48;;;5.63;;
81221;SDS011;70691;52.492;13.420;2023-11-18T11:58:49;12.45;;;6.20;;
81221;SDS011;70691;52.492;13.420;2023-11-18T12:01:24;16.10;;;9.50;;
81221;SDS011;70691;52.492;13.420;2023-11-18T12:03:58;13.20;;;6.82;;
81221;SDS011;70691;52.492;13.420;2023-11-18T12:06:31;14.77;;;7.32;;
81221;SDS011;70691;52.492;13.420;2023-11-18T12:09:00;14.93;;;8.15;;
81221;SDS011;70691;52.492;13.420;2023-11-18T12:11:32;18.20;;;9.10;;
81221;SDS011;70691;52.492;13.420;2023-11-18T12:14:06;16.92;;;7.65;;
81221;SDS011;70691;52.492;13.420;2023-11-18T12:17:02;30.25;;;14.65;;
81221;SDS011;70691;52.492;13.420;2023-11-18T12:19:35;21.00;;;10.73;;
81221;SDS011;70691;52.492;13.420;2023-11-18T12:22:15;18.65;;;8.43;;
81221;SDS011;70691;52.492;13.420;2023-11-18T12:27:45;16.67;;;7.45;;
81221;SDS011;70691;52.492;13.420;2023-11-18T12:46:44;13.43;;;6.72;;
81221;SDS011;70691;52.492;13.420;2023-11-18T12:49:43;13.07;;;7.40;;
81221;SDS011;70691;52.492;13.420;2023-11-18T12:52:10;12.38;;;6.38;;
81221;SDS011;70691;52.492;13.420;2023-11-18T12:57:09;14.57;;;7.22;;
81221;SDS011;70691;52.492;13.420;2023-11-18T12:59:36;13.15;;;6.72;;
81221;SDS011;70691;52.492;13.420;2023-11-18T13:02:11;14.80;;;7.82;;
81221;SDS011;70691;52.492;13.420;2023-11-18T13:04:46;11.73;;;6.25;;
81221;SDS011;70691;52.492;13.420;2023-11-18T13:07:15;11.98;;;6.25;;
81221;SDS011;70691;52.492;13.420;2023-11-18T13:09:46;13.07;;;5.70;;
81221;SDS011;70691;52.492;13.420;2023-11-18T13:12:13;10.98;;;5.63;;
81221;SDS011;70691;52.492;13.420;2023-11-18T13:14:40;12.45;;;5.25;;
81221;SDS011;70691;52.492;13.420;2023-11-18T13:17:10;11.60;;;5.70;;
81221;SDS011;70691;52.492;13.420;2023-11-18T13:22:04;9.77;;;4.80;;
81221;SDS011;70691;52.492;13.420;2023-11-18T13:24:34;12.35;;;5.38;;
81221;SDS011;70691;52.492;13.420;2023-11-18T13:27:10;11.85;;;5.57;;
81221;SDS011;70691;52.492;13.420;2023-11-18T13:29:39;13.07;;;5.47;;
81221;SDS011;70691;52.492;13.420;2023-11-18T13:32:10;11.82;;;5.60;;
81221;SDS011;70691;52.492;13.420;2023-11-18T13:34:37;13.57;;;7.18;;
81221;SDS011;70691;52.492;13.420;2023-11-18T13:37:07;12.32;;;7.07;;
81221;SDS011;70691;52.492;13.420;2023-11-18T13:39:33;15.45;;;6.72;;
81221;SDS011;70691;52.492;13.420;2023-11-18T13:42:17;10.73;;;5.88;;
81221;SDS011;70691;52.492;13.420;2023-11-18T13:44:53;11.40;;;5.78;;
81221;SDS011;70691;52.492;13.420;2023-11-18T13:47:26;10.73;;;5.90;;
81221;SDS011;70691;52.492;13.420;2023-11-18T13:49:53;14.48;;;4.80;;
81221;SDS011;70691;52.492;13.420;2023-11-18T13:52:19;11.93;;;6.00;;
81221;SDS011;70691;52.492;13.420;2023-11-18T13:54:46;12.00;;;5.32;;
81221;SDS011;70691;52.492;13.420;2023-11-18T13:57:12;10.25;;;5.43;;
81221;SDS011;70691;52.492;13.420;2023-11-18T13:59:39;12.35;;;5.15;;
81221;SDS011;70691;52.492;13.420;2023-11-18T14:02:04;18.20;;;8.35;;
81221;SDS011;70691;52.492;13.420;2023-11-18T14:04:31;12.85;;;6.10;;
81221;SDS011;70691;52.492;13.420;2023-11-18T14:06:59;11.82;;;6.10;;
81221;SDS011;70691;52.492;13.420;2023-11-18T14:09:29;14.85;;;7.00;;
81221;SDS011;70691;52.492;13.420;2023-11-18T14:11:57;18.20;;;7.57;;
81221;SDS011;70691;52.492;13.420;2023-11-18T14:14:23;14.43;;;6.68;;
81221;SDS011;70691;52.492;13.420;2023-11-18T14:16:50;16.30;;;6.38;;
81221;SDS011;70691;52.492;13.420;2023-11-18T14:19:22;12.75;;;6.40;;
81221;SDS011;70691;52.492;13.420;2023-11-18T14:21:49;12.75;;;7.07;;
81221;SDS011;70691;52.492;13.420;2023-11-18T14:24:18;15.27;;;6.18;;
81221;SDS011;70691;52.492;13.420;2023-11-18T14:26:44;13.30;;;6.88;;
81221;SDS011;70691;52.492;13.420;2023-11-18T14:29:10;14.27;;;6.05;;
81221;SDS011;70691;52.492;13.420;2023-11-18T14:31:39;15.63;;;6.72;;
81221;SDS011;70691;52.492;13.420;2023-11-18T14:34:04;19.27;;;7.80;;
81221;SDS011;70691;52.492;13.420;2023-11-18T14:36:30;16.55;;;7.18;;
81221;SDS011;70691;52.492;13.420;2023-11-18T14:38:56;12.77;;;6.35;;
81221;SDS011;70691;52.492;13.420;2023-11-18T14:41:24;13.80;;;7.55;;
81221;SDS011;70691;52.492;13.420;2023-11-18T14:43:52;13.57;;;7.20;;
81221;SDS011;70691;52.492;13.420;2023-11-18T14:46:18;26.35;;;12.20;;
81221;SDS011;70691;52.492;13.420;2023-11-18T14:48:44;22.92;;;10.05;;
81221;SDS011;70691;52.492;13.420;2023-11-18T14:51:10;25.00;;;12.15;;
81221;SDS011;70691;52.492;13.420;2023-11-18T14:53:36;19.08;;;9.00;;
81221;SDS011;70691;52.492;13.420;2023-11-18T14:56:02;19.60;;;9.13;;
81221;SDS011;70691;52.492;13.420;2023-11-18T14:58:30;24.55;;;11.55;;
81221;SDS011;70691;52.492;13.420;2023-11-18T15:00:59;23.42;;;12.15;;
81221;SDS011;70691;52.492;13.420;2023-11-18T15:03:25;25.70;;;10.00;;
81221;SDS011;70691;52.492;13.420;2023-11-18T15:05:51;27.58;;;11.30;;
81221;SDS011;70691;52.492;13.420;2023-11-18T15:08:17;28.40;;;12.98;;
81221;SDS011;70691;52.492;13.420;2023-11-18T15:10:42;30.00;;;12.52;;
81221;SDS011;70691;52.492;13.420;2023-11-18T15:13:09;25.35;;;10.35;;
81221;SDS011;70691;52.492;13.420;2023-11-18T15:15:40;19.48;;;8.93;;
81221;SDS011;70691;52.492;13.420;2023-11-18T15:18:06;25.38;;;10.43;;
81221;SDS011;70691;52.492;13.420;2023-11-18T15:20:42;26.58;;;10.93;;
81221;SDS011;70691;52.492;13.420;2023-11-18T15:23:12;35.03;;;15.80;;